Time;durP1;ratioP1;P1;durP2;ratioP2;P2;SDS_P1;SDS_P2;PMS_P1;PMS_P2;Temp;Humidity;BMP_temperature;BMP_pressure;BME280_temperature;BME280_humidity;BME280_pressure;Samples;Min_cycle;Max_cycle;Signal;HPM_P1;HPM_P2
2022/03/22 00:02:23;;;;;;;36.28;16.35;;;-1.20;1.00;;;-0.49;94.46;101470.78;4980991;28;115897;-75
2022/03/22 00:04:52;;;;;;;31.88;16.40;;;-1.30;1.00;;;-0.51;95.05;101456.00;4968973;28;129486;-80
2022/03/22 00:07:22;;;;;;;34.80;18.10;;;-1.30;1.00;;;-0.52;95.57;101460.50;4983167;28;129538;-80
2022/03/22 00:09:50;;;;;;;33.63;16.60;;;-1.20;1.00;;;-0.49;95.62;101464.66;4984556;28;119318;-76
2022/03/22 00:12:19;;;;;;;36.55;17.55;;;-1.20;1.00;;;-0.51;95.48;101459.50;4981593;28;115633;-77
2022/03/22 00:14:47;;;;;;;40.63;19.13;;;-1.30;1.00;;;-0.50;95.17;101466.47;4978760;28;130148;-77
2022/03/22 00:17:16;;;;;;;36.22;18.02;;;-1.30;1.00;;;-0.53;94.91;101469.53;4980831;28;129806;-77
2022/03/22 00:19:44;;;;;;;35.42;18.33;;;-1.40;1.00;;;-0.60;94.83;101472.13;4981727;28;118957;-75
2022/03/22 00:22:14;;;;;;;31.90;17.88;;;-1.40;1.80;;;-0.65;94.94;101468.38;4981055;28;116522;-73
2022/03/22 00:24:44;;;;;;;34.92;18.08;;;-1.50;1.40;;;-0.68;94.56;101469.59;4983730;28;131199;-63
2022/03/22 00:27:13;;;;;;;36.65;17.20;;;-1.60;1.50;;;-0.66;94.36;101469.38;5004138;28;129757;-69
2022/03/22 00:29:42;;;;;;;35.42;17.35;;;-1.60;1.70;;;-0.73;94.56;101470.16;5005745;28;120101;-72
2022/03/22 00:32:11;;;;;;;32.33;17.45;;;-1.60;1.00;;;-0.80;95.09;101463.91;5002734;28;115956;-70
2022/03/22 00:34:44;;;;;;;34.17;17.63;;;-1.50;1.00;;;-0.79;95.11;101464.75;4986086;28;130180;-77
2022/03/22 00:37:15;;;;;;;34.60;16.90;;;-1.50;2.00;;;-0.79;94.97;101464.75;4980914;28;128292;-77
2022/03/22 00:39:46;;;;;;;37.30;17.88;;;-1.60;3.70;;;-0.80;94.50;101465.75;4981153;28;119129;-73
2022/03/22 00:42:15;;;;;;;38.40;18.77;;;-1.70;4.70;;;-0.87;94.49;101463.00;4981152;28;115913;-75
2022/03/22 00:44:43;;;;;;;37.00;17.75;;;-1.80;6.00;;;-0.90;94.75;101468.72;4978965;28;129942;-66
2022/03/22 00:47:12;;;;;;;39.95;18.75;;;-1.80;6.50;;;-0.89;94.75;101461.53;4980847;28;129551;-71
2022/03/22 00:49:41;;;;;;;31.55;16.60;;;-1.80;7.20;;;-0.95;95.70;101460.44;4979167;28;118846;-78
2022/03/22 00:52:10;;;;;;;39.13;17.85;;;-1.80;11.70;;;-0.98;96.39;101461.66;4983271;28;115376;-73
2022/03/22 00:54:38;;;;;;;33.13;17.50;;;-1.70;13.80;;;-0.98;95.96;101455.47;4980744;28;129876;-75
2022/03/22 00:57:08;;;;;;;35.95;16.85;;;-1.70;15.80;;;-0.99;96.34;101460.00;4980305;28;129463;-76
2022/03/22 01:02:24;;;;;;;35.08;16.55;;;-1.80;16.60;;;-0.98;95.45;101464.31;4983156;28;115512;-75
2022/03/22 01:04:53;;;;;;;34.50;16.77;;;-1.90;16.90;;;-0.99;95.48;101460.00;4980881;28;130070;-72
2022/03/22 01:07:23;;;;;;;34.65;16.38;;;-1.90;17.90;;;-1.12;95.96;101454.53;4982225;28;129455;-75
2022/03/22 01:09:52;;;;;;;33.78;16.33;;;-1.90;20.20;;;-1.09;95.68;101464.81;4982114;28;118992;-74
2022/03/22 01:12:22;;;;;;;34.33;15.50;;;-1.90;19.60;;;-1.04;95.60;101466.88;4980240;28;115864;-74
2022/03/22 01:14:52;;;;;;;35.35;15.25;;;-2.00;20.20;;;-1.01;95.32;101458.53;4980378;28;129878;-76
2022/03/22 01:17:20;;;;;;;31.88;14.48;;;-2.00;20.80;;;-1.00;95.34;101463.66;4982170;28;129119;-74
2022/03/22 01:19:49;;;;;;;33.22;16.58;;;-2.00;21.10;;;-1.01;94.93;101461.19;4980143;28;119396;-75
2022/03/22 01:22:18;;;;;;;36.60;17.77;;;-2.00;21.80;;;-1.17;95.91;101463.06;4981674;28;115819;-73
2022/03/22 01:24:47;;;;;;;34.80;16.88;;;-1.90;26.60;;;-1.24;96.53;101454.16;4989790;28;130987;-74
2022/03/22 01:27:15;;;;;;;35.88;15.95;;;-1.90;26.00;;;-1.21;96.48;101461.78;4994785;28;129060;-71
2022/03/22 01:29:46;;;;;;;32.50;17.25;;;-2.00;25.30;;;-1.15;95.99;101455.72;4998001;28;116555;-74
2022/03/22 01:32:15;;;;;;;33.97;16.85;;;-2.00;25.30;;;-1.20;96.05;101452.78;4995494;28;115448;-75
2022/03/22 01:34:43;;;;;;;30.63;16.15;;;-2.00;26.90;;;-1.21;95.83;101455.63;4992194;28;130574;-66
2022/03/22 01:37:12;;;;;;;35.78;17.67;;;-2.00;27.30;;;-1.29;96.89;101453.91;4994445;28;128927;-68
2022/03/22 01:39:41;;;;;;;30.48;17.25;;;-1.90;29.70;;;-1.32;97.71;101454.25;4995961;28;117956;-73
2022/03/22 01:42:09;;;;;;;32.55;17.25;;;-1.90;29.80;;;-1.29;97.41;101453.91;4998199;28;116204;-66
2022/03/22 01:44:38;;;;;;;36.67;17.75;;;-2.00;30.70;;;-1.34;98.75;101457.09;4998710;28;129192;-70
2022/03/22 01:47:09;;;;;;;32.70;17.15;;;-1.80;37.90;;;-1.36;99.08;101453.78;4993860;28;130024;-68
2022/03/22 01:49:38;;;;;;;40.20;16.42;;;-1.80;39.70;;;-1.30;98.33;101444.25;4996770;28;120141;-73
2022/03/22 01:52:09;;;;;;;36.90;18.50;;;-1.90;37.20;;;-1.34;98.14;101446.47;4994341;28;115004;-73
2022/03/22 01:54:38;;;;;;;36.78;18.63;;;-1.90;37.60;;;-1.47;98.32;101441.75;4992849;28;128605;-71
2022/03/22 01:57:07;;;;;;;37.53;17.85;;;-1.90;41.80;;;-1.52;100.00;101446.81;4980343;28;130345;-71
2022/03/22 01:59:36;;;;;;;36.35;18.48;;;-1.90;48.50;;;-1.39;100.00;101445.34;4981320;28;117624;-64
2022/03/22 02:07:41;;;;;;;37.63;17.17;;;-2.00;47.10;;;-1.49;100.00;101441.13;4979339;28;129450;-77
2022/03/22 02:10:10;;;;;;;40.58;18.15;;;-2.00;49.60;;;-1.43;99.60;101441.38;4977782;28;118772;-74
2022/03/22 02:12:38;;;;;;;36.45;16.15;;;-2.00;48.50;;;-1.36;98.65;101436.97;4979860;28;115709;-72
2022/03/22 02:15:08;;;;;;;30.17;16.75;;;-2.10;48.10;;;-1.33;98.34;101436.63;4978309;28;129745;-73
2022/03/22 02:17:37;;;;;;;34.70;16.30;;;-2.20;48.00;;;-1.36;97.95;101429.81;4980946;28;129498;-75
2022/03/22 02:20:09;;;;;;;33.00;17.13;;;-2.30;48.00;;;-1.32;96.84;101430.28;4980972;28;120048;-76
2022/03/22 02:22:50;;;;;;;32.65;16.15;;;-2.30;48.50;;;-1.37;97.32;101435.31;4982227;28;116535;-68
2022/03/22 02:25:21;;;;;;;30.67;15.93;;;-2.30;49.00;;;-1.39;97.03;101432.03;4978727;28;131305;-74
2022/03/22 02:27:52;;;;;;;33.80;16.90;;;-2.40;48.80;;;-1.37;96.72;101435.31;4978808;28;129468;-72
2022/03/22 02:30:21;;;;;;;32.38;16.17;;;-2.40;48.90;;;-1.38;96.48;101431.03;4979441;28;119282;-74
2022/03/22 02:32:51;;;;;;;29.15;15.52;;;-2.40;49.30;;;-1.39;96.47;101432.03;4977326;28;116014;-74
2022/03/22 02:35:20;;;;;;;33.58;17.48;;;-2.40;49.40;;;-1.46;97.17;101438.09;4979954;28;129103;-73
2022/03/22 02:37:50;;;;;;;37.03;17.00;;;-2.40;53.50;;;-1.47;97.14;101431.09;4978688;28;129446;-75
2022/03/22 02:40:21;;;;;;;31.73;17.50;;;-2.40;52.80;;;-1.45;96.68;101423.78;4979134;28;118649;-68
2022/03/22 02:42:54;;;;;;;30.35;16.77;;;-2.40;52.70;;;-1.42;97.08;101435.06;4978182;28;115772;-72
2022/03/22 02:45:24;;;;;;;34.28;18.20;;;-2.40;52.40;;;-1.45;97.62;101429.09;4979065;28;130089;-74
2022/03/22 02:47:52;;;;;;;36.65;16.98;;;-2.30;53.70;;;-1.41;97.37;101434.88;4981838;28;129559;-70
2022/03/22 02:50:22;;;;;;;41.40;17.42;;;-2.40;54.70;;;-1.47;98.64;101439.09;4982838;28;119628;-70
2022/03/22 02:52:51;;;;;;;33.20;16.10;;;-2.20;61.60;;;-1.45;99.23;101433.56;4984182;28;115784;-74
2022/03/22 02:55:21;;;;;;;35.25;17.27;;;-2.10;64.10;;;-1.41;99.11;101428.72;4979710;28;130007;-68
2022/03/22 02:57:50;;;;;;;30.63;15.50;;;-2.10;64.10;;;-1.39;98.81;101432.03;4981673;28;129386;-71
2022/03/22 03:00:18;;;;;;;38.60;17.17;;;-2.10;64.60;;;-1.38;99.13;101428.38;4982170;28;118761;-71
2022/03/22 03:02:50;;;;;;;33.28;16.30;;;-2.10;66.30;;;-1.34;98.79;101437.63;4981766;28;116043;-73
2022/03/22 03:05:19;;;;;;;37.10;17.48;;;-2.10;65.10;;;-1.34;98.28;101432.28;4981175;28;130415;-72
2022/03/22 03:07:48;;;;;;;31.60;16.27;;;-2.20;64.90;;;-1.35;98.60;101435.97;4980308;28;129687;-74
2022/03/22 03:10:17;;;;;;;31.70;16.17;;;-2.20;65.70;;;-1.54;100.00;101434.69;4983877;28;117682;-74
2022/03/22 03:12:47;;;;;;;41.17;18.83;;;-2.00;81.40;;;-1.55;100.00;101433.88;4981945;28;115930;-73
2022/03/22 03:15:17;;;;;;;31.13;15.30;;;-1.70;89.10;;;-1.45;100.00;101433.56;4980861;28;130007;-73
2022/03/22 03:17:46;;;;;;;40.95;19.48;;;-1.50;86.40;;;-1.31;100.00;101445.25;4980199;28;129875;-74
2022/03/22 03:20:14;;;;;;;39.10;20.23;;;-1.50;80.60;;;-1.25;100.00;101439.16;4981676;28;118824;-73
2022/03/22 03:22:43;;;;;;;36.92;17.83;;;-1.40;81.40;;;-1.17;100.00;101431.09;4981747;28;116119;-67
2022/03/22 03:25:11;;;;;;;30.83;16.67;;;-1.50;78.00;;;-1.12;100.00;101447.34;4981142;28;130568;-74
2022/03/22 03:27:41;;;;;;;26.85;14.65;;;-1.50;77.50;;;-1.06;100.00;101442.28;4981611;28;129436;-73
2022/03/22 03:30:12;;;;;;;25.00;14.45;;;-1.40;76.30;;;-0.99;100.00;101445.84;4965426;28;118467;-67
2022/03/22 03:32:41;;;;;;;28.45;15.18;;;-1.40;73.30;;;-1.10;100.00;101447.97;4982159;28;116029;-74
2022/03/22 03:35:10;;;;;;;31.35;15.30;;;-1.40;75.00;;;-1.09;100.00;101449.63;4980535;28;129562;-66
2022/03/22 03:37:42;;;;;;;28.52;14.20;;;-1.50;70.20;;;-1.14;100.00;101446.72;4979981;28;129576;-73
2022/03/22 03:40:12;;;;;;;30.33;14.90;;;-1.50;72.90;;;-1.06;100.00;101447.59;4980347;28;119519;-75
2022/03/22 03:42:42;;;;;;;28.13;13.90;;;-1.50;66.40;;;-1.10;100.00;101445.31;4982025;28;115476;-76
2022/03/22 03:48:00;;;;;;;26.70;14.82;;;-1.50;67.00;;;-0.93;100.00;101443.25;4985450;28;129440;-74
2022/03/22 03:50:28;;;;;;;33.05;13.98;;;-1.50;67.10;;;-0.85;100.00;101450.31;4987912;28;119165;-71
2022/03/22 03:52:57;;;;;;;29.08;15.23;;;-1.40;67.30;;;-0.78;100.00;101448.56;4983229;28;115982;-77
2022/03/22 03:55:25;;;;;;;30.58;14.75;;;-1.30;67.00;;;-0.71;100.00;101445.13;4997750;28;130074;-76
2022/03/22 03:57:54;;;;;;;32.97;14.18;;;-1.30;69.20;;;-0.67;99.65;101451.72;4989429;28;129229;-74
2022/03/22 04:00:24;;;;;;;32.25;17.67;;;-1.40;69.30;;;-0.68;98.49;101456.25;5001933;28;118808;-68
2022/03/22 04:02:53;;;;;;;32.75;15.00;;;-1.50;68.40;;;-0.70;98.39;101452.94;4988264;28;115893;-71
2022/03/22 04:05:21;;;;;;;31.63;15.60;;;-1.60;67.20;;;-0.74;97.76;101452.47;4990766;28;129959;-71
2022/03/22 04:07:50;;;;;;;30.98;15.98;;;-1.70;67.20;;;-0.74;97.16;101457.81;4994181;28;129332;-71
2022/03/22 04:10:18;;;;;;;36.75;16.38;;;-1.70;66.40;;;-0.76;97.01;101451.84;4985813;28;118972;-76
2022/03/22 04:12:47;;;;;;;36.50;16.58;;;-1.80;66.10;;;-0.88;97.21;101449.88;4996332;28;116072;-76
2022/03/22 04:15:16;;;;;;;32.67;17.27;;;-1.80;68.60;;;-0.90;97.17;101452.72;4981444;28;129727;-76
2022/03/22 04:17:46;;;;;;;31.42;15.15;;;-1.80;68.10;;;-0.99;98.07;101460.00;4993987;28;130067;-75
2022/03/22 04:20:14;;;;;;;25.20;13.85;;;-1.70;71.20;;;-0.88;98.41;101452.53;4984765;28;118655;-72
2022/03/22 04:22:44;;;;;;;31.45;14.88;;;-1.60;67.90;;;-0.75;97.35;101456.19;4980911;28;115730;-70
2022/03/22 04:25:12;;;;;;;36.15;18.00;;;-1.70;68.30;;;-0.77;97.55;101458.19;4982770;28;129630;-79
2022/03/22 04:33:28;;;;;;;34.13;17.02;;;-1.60;68.50;;;-0.62;96.56;101458.16;4941909;28;116037;-71
2022/03/22 04:35:57;;;;;;;34.75;16.00;;;-1.60;66.60;;;-0.52;96.15;101455.16;4925694;28;129594;-72
2022/03/22 04:38:25;;;;;;;31.60;16.10;;;-1.60;66.40;;;-0.43;95.92;101459.38;4959303;28;129500;-70
2022/03/22 04:40:54;;;;;;;29.15;14.73;;;-1.50;65.70;;;-0.32;95.05;101454.56;4980755;28;118847;-69
2022/03/22 04:43:22;;;;;;;32.00;15.48;;;-1.50;65.10;;;-0.23;94.44;101458.75;4981141;28;115664;-71
2022/03/22 04:45:51;;;;;;;30.90;16.15;;;-1.50;64.40;;;-0.14;93.81;101452.25;4980531;28;130299;-77
2022/03/22 04:48:20;;;;;;;32.97;16.33;;;-1.40;63.90;;;-0.04;93.61;101447.38;4982980;28;128872;-72
2022/03/22 04:56:43;;;;;;;33.03;18.55;;;-1.40;63.20;;;0.10;93.42;101447.50;4983464;28;118662;-76
2022/03/22 04:59:10;;;;;;;31.55;15.90;;;-1.10;62.30;;;0.50;91.95;101461.94;4982302;28;130869;-78
2022/03/22 05:01:39;;;;;;;32.05;17.98;;;-1.00;61.70;;;0.56;91.61;101457.66;4980990;28;118381;-76
2022/03/22 05:04:07;;;;;;;27.60;16.55;;;-0.90;60.00;;;0.69;91.50;101446.22;4984336;28;115418;-76
2022/03/22 05:06:40;;;;;;;36.00;17.35;;;-0.80;59.10;;;0.83;90.93;101452.47;4981853;28;129732;-78
2022/03/22 05:09:10;;;;;;;36.50;17.83;;;-0.70;58.00;;;1.02;90.74;101448.22;4964835;28;130866;-73
2022/03/22 05:11:39;;;;;;;31.13;17.15;;;-0.60;56.90;;;1.12;90.25;101445.16;4980985;28;118910;-77
2022/03/22 05:14:09;;;;;;;32.00;16.90;;;-0.50;56.50;;;1.29;90.22;101448.28;4983875;28;116488;-77
2022/03/22 05:16:38;;;;;;;33.15;16.77;;;-0.30;55.10;;;1.40;89.78;101453.88;4965986;28;129811;-72
2022/03/22 05:19:07;;;;;;;30.02;14.85;;;-0.20;52.40;;;1.44;89.74;101447.09;4983228;28;128772;-72
2022/03/22 05:21:37;;;;;;;31.42;15.50;;;0.00;47.50;;;1.59;89.42;101446.06;4985380;28;119675;-76
2022/03/22 05:24:06;;;;;;;27.85;15.30;;;0.10;42.10;;;1.77;88.82;101446.28;4981881;28;116101;-79
2022/03/22 05:26:35;;;;;;;29.80;16.02;;;0.20;39.90;;;1.96;88.57;101444.69;4981023;28;129745;-76
2022/03/22 05:29:05;;;;;;;28.05;15.55;;;0.40;37.90;;;2.14;87.60;101444.03;4980766;28;129354;-75
2022/03/22 05:31:35;;;;;;;30.67;14.88;;;0.50;37.00;;;2.33;87.01;101447.72;4981779;28;119206;-76
2022/03/22 05:34:04;;;;;;;27.33;15.70;;;0.70;36.10;;;2.53;86.39;101440.69;4982406;28;115518;-75
2022/03/22 05:36:32;;;;;;;28.15;14.80;;;0.80;31.70;;;2.59;86.06;101439.84;4985285;28;130430;-77
2022/03/22 05:39:02;;;;;;;25.02;14.20;;;0.90;24.00;;;2.63;86.04;101441.03;5000619;28;129396;-78
2022/03/22 05:41:31;;;;;;;32.92;16.13;;;1.10;15.20;;;2.79;86.10;101435.22;4999401;28;119145;-77
2022/03/22 05:44:00;;;;;;;35.17;16.13;;;1.30;9.10;;;3.09;85.57;101429.31;5010023;28;115645;-76
2022/03/22 05:46:28;;;;;;;37.33;18.27;;;1.50;9.10;;;3.31;84.58;101437.03;5011321;28;130581;-79
2022/03/22 05:48:58;;;;;;;39.92;19.25;;;1.60;5.10;;;3.44;84.15;101442.31;5017105;28;128661;-79
2022/03/22 05:51:26;;;;;;;42.83;19.50;;;1.70;1.00;;;3.46;83.46;101434.88;5011596;28;117266;-78
2022/03/22 05:53:55;;;;;;;56.22;32.60;;;1.90;1.00;;;3.49;83.59;101439.81;5003406;28;115975;-78
2022/03/22 05:56:25;;;;;;;52.33;30.42;;;2.00;1.00;;;3.57;83.35;101436.88;5003115;28;131529;-78
2022/03/22 05:58:54;;;;;;;62.58;34.97;;;2.20;1.00;;;3.86;82.76;101428.38;5003824;28;129479;-77
2022/03/22 06:01:23;;;;;;;51.50;29.58;;;2.30;1.00;;;4.02;82.24;101421.63;5020816;28;118722;-83
2022/03/22 06:03:52;;;;;;;48.08;28.60;;;2.50;1.00;;;4.32;81.48;101430.66;5015133;28;114899;-79
2022/03/22 06:06:21;;;;;;;43.80;26.23;;;2.70;1.00;;;4.55;80.51;101431.03;5006127;28;128857;-82
2022/03/22 06:08:51;;;;;;;45.72;21.40;;;2.90;1.00;;;4.78;79.70;101424.97;5004674;28;129113;-80
2022/03/22 06:11:19;;;;;;;44.80;17.08;;;3.10;1.00;;;5.07;78.21;101427.94;4999571;28;118869;-79
2022/03/22 06:13:49;;;;;;;38.65;16.73;;;3.30;1.00;;;5.27;77.15;101428.50;5011963;28;116045;-76
2022/03/22 06:16:20;;;;;;;35.45;14.18;;;3.50;1.00;;;5.45;75.90;101418.69;5009474;28;129563;-78
2022/03/22 06:18:48;;;;;;;24.02;13.32;;;3.70;1.00;;;5.58;74.95;101415.81;5016388;28;128362;-78
2022/03/22 06:21:17;;;;;;;19.33;10.77;;;3.80;1.00;;;5.71;73.74;101420.16;5009523;28;117985;-83
2022/03/22 06:23:47;;;;;;;21.05;11.88;;;4.00;1.00;;;5.85;73.53;101426.16;5016953;28;115624;-79
2022/03/22 06:26:15;;;;;;;23.25;11.52;;;4.20;1.00;;;6.08;72.04;101423.50;5021300;28;130084;-78
2022/03/22 06:28:44;;;;;;;28.27;11.85;;;4.40;1.00;;;6.33;71.89;101430.53;4996771;28;127427;-80
2022/03/22 06:31:14;;;;;;;31.52;15.10;;;4.60;1.00;;;6.57;70.48;101431.31;5009506;28;118722;-81
2022/03/22 06:33:43;;;;;;;23.70;13.40;;;4.70;1.00;;;6.81;69.74;101426.69;5005531;28;115922;-80
2022/03/22 06:36:11;;;;;;;25.77;12.80;;;4.90;1.00;;;6.99;68.87;101430.28;5009376;28;129124;-79
2022/03/22 06:38:40;;;;;;;26.67;12.75;;;5.10;1.00;;;7.00;68.08;101423.84;5004109;28;129552;-78
2022/03/22 06:41:09;;;;;;;22.92;10.88;;;5.20;1.00;;;7.09;67.02;101427.78;5002576;28;118860;-77
2022/03/22 06:43:38;;;;;;;27.75;12.25;;;5.30;1.00;;;7.17;67.00;101432.78;5005519;28;114874;-82
2022/03/22 06:46:07;;;;;;;19.35;10.48;;;5.50;1.00;;;7.37;66.44;101429.66;5005162;28;129440;-81
2022/03/22 06:48:37;;;;;;;24.98;12.05;;;5.60;1.00;;;7.60;65.59;101427.06;5003352;28;129218;-82
2022/03/22 06:51:05;;;;;;;24.80;10.88;;;5.80;1.00;;;7.83;64.83;101436.91;5003807;28;119252;-81
2022/03/22 06:53:34;;;;;;;20.50;10.85;;;6.00;1.00;;;8.07;63.98;101434.84;5003015;28;117951;-81
2022/03/22 06:56:05;;;;;;;20.52;11.93;;;6.10;1.00;;;7.53;65.04;101441.53;5004742;28;128947;-81
2022/03/22 06:58:33;;;;;;;17.13;9.95;;;6.10;1.00;;;7.58;64.82;101440.00;5002491;28;129479;-79
2022/03/22 07:01:04;;;;;;;17.33;9.35;;;6.30;1.00;;;7.59;64.49;101442.47;5003793;28;119396;-83
2022/03/22 07:03:33;;;;;;;20.77;8.07;;;6.40;1.00;;;7.74;64.16;101429.22;5006405;28;114782;-76
2022/03/22 07:06:06;;;;;;;16.73;9.10;;;6.60;1.00;;;8.28;62.63;101436.78;5003340;28;129936;-79
2022/03/22 07:08:35;;;;;;;19.45;9.57;;;6.80;1.00;;;8.69;61.67;101435.72;5003637;28;130059;-78
2022/03/22 07:13:50;;;;;;;15.93;8.40;;;7.20;1.00;;;9.14;58.43;101418.38;5003657;28;114950;-78
2022/03/22 07:16:19;;;;;;;18.25;8.82;;;7.30;1.00;;;9.28;57.72;101432.34;5002646;28;129862;-80
2022/03/22 07:18:47;;;;;;;15.98;7.60;;;7.50;1.00;;;9.39;57.05;101420.53;5002553;28;130080;-77
2022/03/22 07:21:18;;;;;;;19.50;8.35;;;7.60;1.00;;;9.43;56.77;101431.69;5004226;28;119111;-80
2022/03/22 07:23:46;;;;;;;19.30;8.07;;;7.60;1.00;;;9.63;56.82;101426.44;5002235;28;115866;-82
2022/03/22 07:26:16;;;;;;;27.02;11.48;;;7.80;1.00;;;9.74;56.16;101432.78;5003885;28;130109;-80
2022/03/22 07:28:45;;;;;;;17.25;8.27;;;8.00;1.00;;;9.88;55.80;101427.75;5004259;28;128949;-77
2022/03/22 07:31:13;;;;;;;19.88;8.20;;;8.10;1.00;;;10.02;55.30;101426.22;5003134;28;119129;-75
2022/03/22 07:33:41;;;;;;;19.63;9.40;;;8.20;1.00;;;10.30;55.53;101429.66;5002165;28;115619;-82
2022/03/22 07:36:10;;;;;;;18.60;8.93;;;8.40;1.00;;;10.56;53.92;101422.47;5003956;28;129719;-80
2022/03/22 07:38:41;;;;;;;21.05;8.95;;;8.60;1.00;;;10.66;53.75;101416.28;5004303;28;129220;-71
2022/03/22 07:41:12;;;;;;;20.92;9.10;;;8.80;1.00;;;10.86;53.26;101420.16;4987787;28;118644;-76
2022/03/22 07:43:41;;;;;;;15.23;7.93;;;8.90;1.00;;;11.15;52.29;101426.75;5002086;28;114996;-78
2022/03/22 07:46:10;;;;;;;15.52;8.48;;;9.20;1.00;;;11.39;51.78;101422.72;5003745;28;130144;-75
2022/03/22 07:48:38;;;;;;;12.93;6.82;;;9.40;1.00;;;11.42;51.02;101428.47;5001849;28;130155;-81
2022/03/22 07:53:57;;;;;;;15.30;6.05;;;9.60;1.00;;;11.61;50.04;101425.19;5002390;28;115504;-80
2022/03/22 07:56:25;;;;;;;13.15;4.95;;;9.70;1.00;;;11.88;48.67;101425.72;5001673;28;129923;-79
2022/03/22 07:58:54;;;;;;;11.95;5.22;;;9.90;1.00;;;12.07;48.00;101424.41;5001154;28;129912;-78
2022/03/22 08:01:22;;;;;;;14.48;5.72;;;10.10;1.00;;;12.26;47.62;101414.53;5001994;28;118813;-75
2022/03/22 08:03:51;;;;;;;15.48;5.88;;;10.20;1.00;;;12.39;46.96;101413.97;5002389;28;115937;-78
2022/03/22 08:06:20;;;;;;;17.85;5.25;;;10.30;1.00;;;11.75;47.13;101414.56;5003451;28;128706;-78
2022/03/22 08:08:49;;;;;;;11.40;5.00;;;10.30;1.00;;;11.73;47.71;101409.41;5004116;28;129828;-76
2022/03/22 08:11:18;;;;;;;16.15;4.47;;;10.30;1.00;;;12.30;46.44;101415.63;4986642;28;118308;-81
2022/03/22 08:13:47;;;;;;;14.00;5.00;;;10.50;1.00;;;12.58;45.56;101414.19;4987420;28;115037;-79
2022/03/22 08:16:16;;;;;;;17.60;10.57;;;10.60;1.00;;;12.79;44.76;101416.81;5004395;28;130176;-80
2022/03/22 08:18:44;;;;;;;11.48;5.60;;;10.80;1.00;;;12.81;44.69;101402.91;5000997;28;130088;-76
2022/03/22 08:21:13;;;;;;;10.23;4.93;;;10.90;1.00;;;12.90;44.32;101402.06;5004711;28;118861;-74
2022/03/22 08:23:42;;;;;;;11.95;5.22;;;11.00;1.00;;;13.13;43.32;101410.66;5001521;28;115823;-79
2022/03/22 08:26:10;;;;;;;12.52;4.60;;;11.10;1.00;;;13.27;43.37;101398.00;5001780;28;129828;-77
2022/03/22 08:28:40;;;;;;;10.98;4.25;;;11.30;1.00;;;12.44;44.76;101404.16;5003457;28;129163;-76
2022/03/22 08:31:09;;;;;;;12.20;5.97;;;11.10;1.00;;;12.65;45.23;101396.72;4986507;28;118378;-78
2022/03/22 08:33:38;;;;;;;10.27;5.05;;;11.30;1.00;;;12.55;44.52;101395.66;5001843;28;115078;-80
2022/03/22 08:36:06;;;;;;;14.45;8.10;;;11.30;1.00;;;12.39;45.07;101397.63;5001003;28;130388;-75
2022/03/22 08:38:36;;;;;;;13.50;7.00;;;11.40;1.00;;;13.02;43.57;101384.56;5001292;28;129979;-78
2022/03/22 08:41:04;;;;;;;15.02;7.43;;;11.50;1.00;;;13.35;43.06;101391.16;5001317;28;119582;-75
2022/03/22 08:43:34;;;;;;;12.77;6.20;;;11.70;1.00;;;13.53;42.30;101386.94;5000621;28;115557;-79
2022/03/22 08:46:05;;;;;;;13.52;6.35;;;11.80;1.00;;;13.76;41.82;101379.09;5001065;28;130252;-75
2022/03/22 08:48:34;;;;;;;11.88;6.15;;;11.90;1.00;;;13.65;41.81;101383.88;4999921;28;129964;-78
2022/03/22 08:51:04;;;;;;;12.23;5.88;;;12.00;1.00;;;13.27;43.00;101381.66;5001251;28;118772;-79
2022/03/22 08:53:33;;;;;;;9.52;5.85;;;11.90;1.00;;;13.59;42.81;101385.81;4986398;28;115020;-80
2022/03/22 08:56:03;;;;;;;13.00;6.10;;;12.00;1.00;;;13.24;43.78;101390.38;4980948;28;129740;-79
2022/03/22 08:58:32;;;;;;;15.60;5.72;;;11.90;1.00;;;12.91;43.74;101381.88;4980567;28;129484;-77
2022/03/22 09:01:01;;;;;;;12.63;5.60;;;11.90;1.00;;;13.44;42.94;101384.00;4982551;28;119110;-76
2022/03/22 09:03:32;;;;;;;13.20;5.90;;;12.10;1.00;;;13.78;41.74;101379.66;4981367;28;115971;-77
2022/03/22 09:06:09;;;;;;;11.07;6.50;;;12.00;1.00;;;13.82;42.00;101377.94;4984565;28;130010;-79
2022/03/22 09:08:38;;;;;;;;;;;12.00;1.00;;;13.08;43.24;101378.78;4981587;28;129411;-79
2022/03/22 09:11:07;;;;;;;11.43;5.75;;;11.90;1.00;;;13.70;42.62;101369.34;4979927;28;119003;-79
2022/03/22 09:13:37;;;;;;;10.55;5.90;;;12.20;1.00;;;13.97;41.12;101375.06;4981540;28;115033;-77
2022/03/22 09:16:13;;;;;;;13.88;5.93;;;12.30;1.00;;;13.97;41.66;101369.63;4983778;28;129267;-82
2022/03/22 09:18:46;;;;;;;11.02;5.60;;;12.30;1.00;;;13.96;40.83;101372.63;4982471;28;130183;-82
2022/03/22 09:21:15;;;;;;;12.98;6.47;;;12.30;1.00;;;13.94;41.31;101370.19;4983823;28;117721;-78
2022/03/22 09:23:44;;;;;;;13.15;6.60;;;12.30;1.00;;;14.16;40.56;101368.88;4980976;28;116327;-76
2022/03/22 09:26:12;;;;;;;10.98;5.38;;;12.50;1.00;;;14.40;40.12;101371.63;4982991;28;129420;-78
2022/03/22 09:28:41;;;;;;;12.65;5.60;;;12.60;1.00;;;14.47;39.46;101371.25;4983191;28;129719;-79
2022/03/22 09:31:10;;;;;;;8.35;5.00;;;12.60;1.00;;;14.70;39.31;101354.03;4981044;28;118993;-79
2022/03/22 09:33:39;;;;;;;12.38;5.57;;;12.70;1.00;;;14.80;39.39;101357.75;4981728;28;114958;-79
2022/03/22 09:36:09;;;;;;;10.88;4.75;;;12.80;1.00;;;14.68;38.75;101367.19;4983595;28;130130;-77
2022/03/22 09:38:38;;;;;;;9.80;4.88;;;12.70;1.00;;;14.65;38.96;101354.13;4980714;28;129544;-72
2022/03/22 09:41:07;;;;;;;9.63;5.13;;;12.70;1.00;;;14.56;39.10;101350.38;4983897;28;119896;-79
2022/03/22 09:43:38;;;;;;;13.98;6.05;;;12.80;1.00;;;14.44;39.67;101358.19;4981273;28;115189;-76
2022/03/22 09:46:09;;;;;;;11.20;5.53;;;12.70;1.00;;;14.37;40.91;101353.88;4980324;28;129931;-78
2022/03/22 09:48:38;;;;;;;10.15;5.65;;;12.80;1.00;;;14.33;40.93;101355.56;4981812;28;131219;-79
2022/03/22 09:53:55;;;;;;;10.70;4.63;;;12.90;1.00;;;13.66;41.42;101353.56;4982077;28;115453;-78
2022/03/22 09:56:26;;;;;;;9.35;4.97;;;12.60;1.00;;;14.22;41.50;101348.59;4983636;28;129909;-76
2022/03/22 09:58:54;;;;;;;10.98;4.88;;;12.80;1.00;;;14.12;40.93;101355.00;4985708;28;128462;-79
2022/03/22 10:01:23;;;;;;;10.05;4.03;;;12.80;1.00;;;13.64;42.62;101349.50;4984131;28;118759;-76
2022/03/22 10:04:03;;;;;;;9.43;4.68;;;12.70;1.00;;;13.91;41.60;101351.66;4983759;28;115377;-77
2022/03/22 10:06:34;;;;;;;9.90;4.57;;;12.80;1.00;;;14.54;41.07;101352.59;4983248;28;130014;-78
2022/03/22 10:09:05;;;;;;;8.75;4.38;;;13.00;1.00;;;13.68;41.72;101353.28;4987519;28;129864;-78
2022/03/22 10:11:39;;;;;;;10.25;4.20;;;12.80;1.00;;;13.33;42.07;101351.63;4996790;28;117698;-77
2022/03/22 10:14:09;;;;;;;11.18;5.25;;;12.60;1.00;;;13.50;42.22;101346.59;4984765;28;116489;-77
2022/03/22 10:16:50;;;;;;;10.60;5.45;;;12.60;1.00;;;13.33;42.62;101348.91;4968573;28;130695;-78
2022/03/22 10:19:21;;;;;;;10.88;4.78;;;12.60;1.00;;;14.24;40.99;101346.38;4983196;28;129401;-78
2022/03/22 10:21:53;;;;;;;11.27;4.53;;;12.90;1.00;;;14.85;40.32;101344.00;4986214;28;118958;-77
2022/03/22 10:24:22;;;;;;;8.95;4.50;;;13.20;1.00;;;14.68;40.30;101344.53;4983740;28;114994;-78
2022/03/22 10:26:50;;;;;;;11.10;4.63;;;13.40;1.00;;;14.57;40.76;101338.38;4982719;28;129930;-77
2022/03/22 10:29:20;;;;;;;9.35;4.95;;;13.30;1.00;;;14.25;40.53;101348.03;4985143;28;128606;-75
2022/03/22 10:31:50;;;;;;;10.82;5.32;;;13.10;1.00;;;14.50;40.28;101337.91;4986110;28;119162;-76
2022/03/22 10:34:28;;;;;;;10.23;4.82;;;13.20;1.00;;;13.81;41.12;101338.16;4983496;28;115140;-75
2022/03/22 10:36:59;;;;;;;11.82;5.82;;;12.90;1.00;;;14.39;40.57;101332.56;4985576;28;129861;-78
2022/03/22 10:39:28;;;;;;;12.93;6.13;;;13.10;1.00;;;14.28;41.51;101336.53;4982883;28;130244;-77
2022/03/22 10:42:07;;;;;;;15.23;6.65;;;13.20;1.00;;;14.57;40.78;101335.63;4985190;28;118571;-76
2022/03/22 10:44:37;;;;;;;14.02;6.10;;;13.30;1.00;;;14.85;40.22;101322.13;4983938;28;115858;-74